Time;durP1;ratioP1;P1;durP2;ratioP2;P2;SDS_P1;SDS_P2;PMS_P1;PMS_P2;Temp;Humidity;BMP_temperature;BMP_pressure;BME280_temperature;BME280_humidity;BME280_pressure;Samples;Min_cycle;Max_cycle;Signal;HPM_P1;HPM_P2
2023/03/02 05:05:00;;;;;;;7.40;3.50;;;11.70;60.40;;;;;;4750187;30;20079;-77
2023/03/02 05:08:01;;;;;;;8.32;3.50;;;11.70;60.80;;;;;;4769723;30;20364;-78
2023/03/02 05:10:27;;;;;;;7.18;3.92;;;11.60;61.20;;;;;;4755236;30;20051;-78
2023/03/02 05:12:56;;;;;;;17.80;3.75;;;11.70;61.30;;;;;;4754873;30;20051;-73
2023/03/02 05:15:44;;;;;;;10.25;2.92;;;11.80;61.40;;;;;;4754524;30;20369;-76
2023/03/02 05:18:11;;;;;;;8.05;3.17;;;12.00;61.90;;;;;;4771514;30;20418;-74
2023/03/02 05:20:38;;;;;;;10.82;3.60;;;12.20;61.10;;;;;;4771810;30;20047;-80
2023/03/02 05:23:07;;;;;;;11.30;3.80;;;12.40;61.00;;;;;;4755871;30;20052;-79
2023/03/02 05:25:35;;;;;;;11.70;3.78;;;12.50;61.00;;;;;;4755450;30;20098;-75
2023/03/02 05:28:02;;;;;;;9.20;4.18;;;12.70;61.00;;;;;;4771029;30;20052;-80
2023/03/02 05:30:28;;;;;;;14.00;4.10;;;12.80;61.20;;;;;;4770445;30;20043;-78
2023/03/02 05:32:53;;;;;;;10.73;4.05;;;12.90;61.30;;;;;;4771312;30;20456;-78
2023/03/02 05:35:21;;;;;;;12.27;3.45;;;13.10;61.60;;;;;;4770699;30;20058;-76
2023/03/02 05:37:47;;;;;;;15.35;4.25;;;13.20;61.50;;;;;;4771576;30;20051;-75
2023/03/02 05:40:16;;;;;;;20.50;4.25;;;13.20;61.50;;;;;;4771549;30;20587;-74
2023/03/02 05:42:42;;;;;;;9.95;3.40;;;13.30;61.60;;;;;;4773536;30;20608;-74
2023/03/02 05:45:15;;;;;;;13.38;4.53;;;13.40;61.60;;;;;;4786393;30;20079;-73
2023/03/02 05:47:41;;;;;;;11.65;3.97;;;13.50;61.70;;;;;;4774529;30;20070;-73
2023/03/02 05:50:07;;;;;;;18.88;4.90;;;13.60;61.70;;;;;;4775134;30;20459;-74
2023/03/02 05:52:33;;;;;;;13.80;3.92;;;13.70;61.70;;;;;;4774853;30;20039;-72
2023/03/02 05:54:59;;;;;;;16.73;4.47;;;13.80;61.50;;;;;;4774780;30;20337;-72
2023/03/02 05:57:25;;;;;;;15.48;5.78;;;13.80;61.40;;;;;;4774050;30;20043;-74
2023/03/02 05:59:53;;;;;;;16.75;4.88;;;13.90;61.60;;;;;;4774524;30;20148;-78
2023/03/02 06:02:19;;;;;;;16.88;8.88;;;13.90;61.60;;;;;;4773272;30;20044;-71
2023/03/02 06:04:45;;;;;;;13.80;9.18;;;14.00;60.50;;;;;;4789742;29;20071;-69
2023/03/02 06:07:11;;;;;;;25.65;13.00;;;14.00;59.30;;;;;;4792164;30;20054;-71
2023/03/02 06:09:38;;;;;;;22.55;14.63;;;14.00;58.60;;;;;;4792530;29;20139;-73
2023/03/02 06:12:04;;;;;;;25.25;12.18;;;13.90;56.30;;;;;;4791956;30;20420;-72
2023/03/02 06:14:31;;;;;;;19.98;11.48;;;14.00;58.40;;;;;;4792120;30;20051;-71
2023/03/02 06:16:56;;;;;;;26.90;11.68;;;14.00;59.00;;;;;;4792133;29;20087;-72
2023/03/02 06:19:44;;;;;;;25.13;11.15;;;14.10;59.40;;;;;;4792299;30;20110;-84
2023/03/02 06:22:10;;;;;;;30.65;13.90;;;14.20;59.90;;;;;;4791555;29;20459;-72
2023/03/02 06:24:36;;;;;;;26.73;13.05;;;14.30;59.10;;;;;;4791148;30;20074;-72
2023/03/02 06:27:01;;;;;;;24.50;14.32;;;14.30;58.80;;;;;;4791055;30;20470;-73
2023/03/02 06:29:27;;;;;;;27.40;12.75;;;14.40;58.00;;;;;;4791074;29;20112;-71
2023/03/02 06:32:10;;;;;;;26.52;11.13;;;14.40;58.80;;;;;;4791446;30;20423;-78
2023/03/02 06:34:36;;;;;;;23.63;14.23;;;14.40;59.30;;;;;;4775542;29;20417;-73
2023/03/02 06:37:02;;;;;;;29.33;15.18;;;14.50;58.80;;;;;;4791669;30;20047;-73
2023/03/02 06:39:28;;;;;;;23.42;14.05;;;14.60;57.90;;;;;;4792808;29;20070;-72
2023/03/02 06:41:54;;;;;;;26.50;13.85;;;14.60;58.60;;;;;;4781103;30;20527;-71
2023/03/02 06:44:20;;;;;;;32.00;13.38;;;14.60;58.20;;;;;;4776083;30;20134;-73
2023/03/02 06:46:46;;;;;;;27.17;11.45;;;14.60;59.50;;;;;;4791821;29;20047;-73
2023/03/02 06:49:11;;;;;;;25.02;12.02;;;14.70;60.00;;;;;;4791212;29;20047;-71
2023/03/02 06:51:38;;;;;;;28.23;11.77;;;14.80;60.20;;;;;;4790509;30;20059;-72
2023/03/02 06:54:07;;;;;;;24.35;11.95;;;14.90;60.30;;;;;;4789371;29;20055;-72
2023/03/02 06:56:33;;;;;;;44.03;14.13;;;14.90;60.10;;;;;;4797371;29;20108;-70
2023/03/02 06:58:59;;;;;;;24.88;11.60;;;14.90;60.10;;;;;;4799352;29;20071;-77
2023/03/02 07:01:25;;;;;;;26.65;11.57;;;15.00;60.20;;;;;;4791485;30;20574;-71
2023/03/02 07:03:50;;;;;;;24.20;11.20;;;15.00;60.30;;;;;;4790393;30;20535;-73
2023/03/02 07:06:16;;;;;;;22.92;9.30;;;15.00;60.20;;;;;;4791206;29;20051;-73
2023/03/02 07:08:42;;;;;;;22.45;11.90;;;15.10;60.30;;;;;;4801678;29;20059;-72
2023/03/02 07:11:09;;;;;;;18.27;9.88;;;15.10;60.10;;;;;;4807114;29;20119;-75
2023/03/02 07:13:39;;;;;;;23.70;10.35;;;15.10;59.80;;;;;;4790129;30;20074;-74
2023/03/02 07:16:09;;;;;;;22.77;10.48;;;15.20;59.60;;;;;;4791020;30;20054;-70
2023/03/02 07:18:35;;;;;;;23.92;9.25;;;15.20;59.30;;;;;;4790997;29;20048;-74
2023/03/02 07:21:01;;;;;;;17.52;9.88;;;15.20;59.20;;;;;;4790067;29;20112;-74
2023/03/02 07:23:27;;;;;;;16.83;8.35;;;15.30;59.30;;;;;;4790886;30;20078;-73
2023/03/02 07:25:53;;;;;;;19.38;8.40;;;15.30;59.10;;;;;;4790973;30;20428;-73
2023/03/02 07:28:20;;;;;;;14.95;8.40;;;15.30;59.20;;;;;;4790818;30;20051;-76
2023/03/02 07:30:46;;;;;;;22.20;8.95;;;15.40;59.10;;;;;;4790726;30;20043;-73
2023/03/02 07:33:12;;;;;;;18.98;8.75;;;15.40;59.10;;;;;;4784316;30;20051;-74
2023/03/02 07:35:37;;;;;;;15.98;8.63;;;15.40;59.10;;;;;;4789311;30;20537;-73
2023/03/02 07:38:03;;;;;;;19.23;9.18;;;15.50;59.00;;;;;;4790464;30;20494;-74
2023/03/02 07:40:29;;;;;;;19.65;7.68;;;15.50;58.80;;;;;;4790799;29;20127;-73
2023/03/02 07:42:55;;;;;;;20.70;8.02;;;15.50;58.70;;;;;;4774482;30;20134;-75
2023/03/02 07:45:23;;;;;;;17.38;8.02;;;15.50;58.50;;;;;;4790236;30;20055;-76
2023/03/02 07:47:49;;;;;;;21.33;8.38;;;15.60;58.50;;;;;;4801878;29;20058;-76
2023/03/02 07:50:15;;;;;;;17.58;8.32;;;15.60;58.40;;;;;;4790825;29;20062;-75
2023/03/02 07:52:44;;;;;;;12.75;7.38;;;15.60;58.30;;;;;;4774535;30;20059;-84
2023/03/02 07:55:13;;;;;;;16.88;8.38;;;15.60;58.20;;;;;;4774491;30;20379;-85
2023/03/02 07:57:42;;;;;;;15.10;9.85;;;15.60;58.30;;;;;;4776123;29;20047;-84
2023/03/02 08:00:08;;;;;;;23.35;13.15;;;15.60;57.40;;;;;;4802244;29;20047;-74
2023/03/02 08:02:34;;;;;;;24.85;12.13;;;15.60;56.30;;;;;;4789942;29;20079;-74
2023/03/02 08:04:59;;;;;;;25.55;12.73;;;15.60;55.30;;;;;;4789419;30;20059;-73
2023/03/02 08:07:25;;;;;;;25.83;12.23;;;15.60;55.20;;;;;;4789971;30;20134;-74
2023/03/02 08:09:51;;;;;;;22.00;10.60;;;15.50;55.40;;;;;;4774319;30;20055;-71
2023/03/02 08:12:17;;;;;;;23.80;10.55;;;15.50;55.50;;;;;;4774900;30;20059;-74
2023/03/02 08:14:42;;;;;;;26.60;9.93;;;15.60;56.10;;;;;;4790508;29;20043;-73
2023/03/02 08:17:08;;;;;;;18.80;9.77;;;15.60;56.50;;;;;;4774317;30;20051;-73
2023/03/02 08:19:34;;;;;;;19.45;10.38;;;15.60;56.90;;;;;;4790076;30;20044;-72
2023/03/02 08:22:01;;;;;;;30.30;10.50;;;15.60;57.20;;;;;;4789374;30;20355;-73
2023/03/02 08:24:29;;;;;;;26.00;9.88;;;15.60;57.30;;;;;;4790433;29;20101;-77
2023/03/02 08:26:58;;;;;;;26.95;10.73;;;15.60;57.60;;;;;;4774058;30;20051;-72
2023/03/02 08:29:24;;;;;;;39.67;10.63;;;15.50;57.60;;;;;;4789855;29;20079;-77
2023/03/02 08:31:50;;;;;;;36.58;9.82;;;15.40;57.70;;;;;;4789677;30;20090;-73
2023/03/02 08:34:15;;;;;;;38.10;10.63;;;15.40;57.90;;;;;;4790367;30;20062;-72
2023/03/02 08:36:42;;;;;;;28.92;13.48;;;15.30;57.90;;;;;;4789821;29;20051;-75
2023/03/02 08:39:08;;;;;;;27.98;12.68;;;15.30;56.80;;;;;;4790082;29;20062;-73
2023/03/02 08:41:34;;;;;;;24.92;13.23;;;15.20;56.00;;;;;;4789665;30;20078;-73
2023/03/02 08:44:00;;;;;;;23.70;12.25;;;15.10;55.50;;;;;;4790671;30;20415;-74
2023/03/02 08:46:26;;;;;;;20.83;11.85;;;15.00;55.50;;;;;;4789686;30;20053;-73
2023/03/02 08:48:52;;;;;;;23.80;11.85;;;15.00;55.70;;;;;;4790443;30;20397;-74
2023/03/02 08:51:21;;;;;;;19.88;12.90;;;14.90;55.70;;;;;;4789569;30;20055;-73
2023/03/02 08:53:49;;;;;;;22.98;12.02;;;14.90;55.90;;;;;;4789418;30;20079;-74
2023/03/02 08:56:15;;;;;;;21.17;11.15;;;14.80;56.00;;;;;;4790075;30;20043;-73
2023/03/02 08:58:41;;;;;;;17.60;10.68;;;14.80;56.20;;;;;;4784698;30;20128;-74
2023/03/02 09:01:13;;;;;;;16.52;11.00;;;14.70;56.90;;;;;;4790233;30;20047;-75
2023/03/02 09:03:39;;;;;;;18.23;10.80;;;14.70;56.40;;;;;;4789069;30;20075;-74
2023/03/02 09:06:05;;;;;;;20.70;10.35;;;14.60;56.50;;;;;;4789174;29;20191;-72
2023/03/02 09:08:30;;;;;;;19.83;9.52;;;14.60;56.60;;;;;;4789302;30;20097;-72
2023/03/02 09:10:56;;;;;;;15.10;9.68;;;14.50;56.70;;;;;;4790138;30;20146;-75
2023/03/02 09:13:22;;;;;;;16.50;10.18;;;14.50;56.80;;;;;;4789382;30;20043;-73
2023/03/02 09:15:47;;;;;;;15.07;9.15;;;14.50;56.90;;;;;;4789719;30;20051;-74
2023/03/02 09:18:13;;;;;;;16.73;9.35;;;14.40;57.00;;;;;;4790561;29;20131;-73
2023/03/02 09:20:39;;;;;;;17.70;9.15;;;14.40;57.10;;;;;;4793241;29;20138;-74
2023/03/02 09:23:05;;;;;;;15.52;9.07;;;14.30;57.10;;;;;;4792984;30;20059;-75
2023/03/02 09:25:30;;;;;;;12.02;9.15;;;14.30;57.30;;;;;;4793269;29;20527;-75
2023/03/02 09:27:56;;;;;;;14.20;8.98;;;14.30;57.40;;;;;;4793015;29;20082;-74
2023/03/02 09:30:22;;;;;;;15.07;9.50;;;14.20;57.40;;;;;;4792795;29;20059;-72
2023/03/02 09:32:48;;;;;;;13.18;8.45;;;14.20;57.50;;;;;;4793333;30;20366;-74
2023/03/02 09:35:14;;;;;;;16.27;9.40;;;14.20;57.50;;;;;;4792132;30;20434;-75
2023/03/02 09:37:40;;;;;;;11.77;8.25;;;14.20;57.50;;;;;;4792948;30;20142;-73
2023/03/02 09:40:24;;;;;;;13.02;8.98;;;14.10;57.60;;;;;;4793042;30;20079;-72
2023/03/02 09:43:12;;;;;;;;;;;14.10;57.50;;;;;;4777271;30;20070;-73
2023/03/02 09:45:50;;;;;;;14.85;7.35;;;14.10;57.50;;;;;;4789905;29;19925;-74
2023/03/02 09:48:37;;;;;;;11.98;8.38;;;14.00;57.70;;;;;;4792671;29;20359;-75
2023/03/02 09:51:24;;;;;;;12.30;8.32;;;14.00;57.90;;;;;;4792331;29;20464;-74
2023/03/02 09:54:23;;;;;;;14.40;8.40;;;14.00;57.90;;;;;;4792460;30;20395;-73
2023/03/02 09:56:53;;;;;;;12.02;7.82;;;13.90;58.00;;;;;;4784431;30;20071;-73
2023/03/02 09:59:46;;;;;;;12.27;7.78;;;13.90;58.10;;;;;;4776533;30;20379;-74
2023/03/02 10:02:31;;;;;;;12.52;8.45;;;13.90;58.10;;;;;;4792512;30;20100;-75
2023/03/02 10:04:59;;;;;;;10.15;7.18;;;13.80;58.00;;;;;;4791996;30;20477;-73
2023/03/02 10:07:28;;;;;;;14.40;8.02;;;13.80;58.30;;;;;;4791911;30;20506;-75
2023/03/02 10:10:10;;;;;;;14.27;8.45;;;13.80;58.30;;;;;;4792632;30;20059;-73
2023/03/02 10:12:55;;;;;;;12.05;7.75;;;13.80;58.40;;;;;;4792690;30;20063;-75
2023/03/02 10:15:40;;;;;;;14.02;8.07;;;13.80;58.40;;;;;;4791546;29;20043;-75
2023/03/02 10:18:34;;;;;;;10.13;7.60;;;13.80;58.50;;;;;;4792538;30;20435;-75
2023/03/02 10:21:08;;;;;;;9.53;7.27;;;13.80;58.40;;;;;;4791952;30;20051;-75
2023/03/02 10:23:55;;;;;;;10.73;7.18;;;13.70;58.60;;;;;;4776214;30;20452;-75
2023/03/02 10:26:37;;;;;;;12.77;7.82;;;13.70;58.60;;;;;;4791422;29;20055;-74
2023/03/02 10:29:21;;;;;;;9.77;6.75;;;13.70;58.70;;;;;;4791935;29;20447;-73
2023/03/02 10:31:51;;;;;;;11.85;6.70;;;13.70;58.80;;;;;;4791027;30;20059;-76
2023/03/02 10:34:18;;;;;;;10.15;6.45;;;13.70;58.90;;;;;;4776427;30;20059;-74
2023/03/02 10:36:46;;;;;;;13.30;7.47;;;13.70;59.00;;;;;;4775845;30;20055;-76
2023/03/02 10:39:16;;;;;;;15.77;8.52;;;13.70;59.30;;;;;;4790247;30;20414;-77
2023/03/02 10:42:02;;;;;;;10.85;7.22;;;13.70;59.50;;;;;;4784339;29;20043;-75
2023/03/02 10:44:35;;;;;;;11.55;7.38;;;13.70;59.60;;;;;;4791644;29;20039;-77
2023/03/02 10:47:02;;;;;;;8.98;7.35;;;13.70;59.60;;;;;;4795174;29;20061;-77
2023/03/02 10:49:35;;;;;;;11.65;7.35;;;13.70;59.60;;;;;;4808922;29;20047;-77
2023/03/02 10:52:11;;;;;;;13.87;8.00;;;13.70;59.60;;;;;;4791592;30;20051;-75
2023/03/02 10:54:37;;;;;;;17.02;7.88;;;13.70;60.30;;;;;;4790061;30;20051;-77
2023/03/02 10:57:25;;;;;;;12.32;7.72;;;13.70;60.00;;;;;;4791529;30;20051;-75
2023/03/02 10:59:51;;;;;;;13.32;7.60;;;13.70;60.90;;;;;;4791023;29;20047;-77
2023/03/02 11:02:26;;;;;;;13.80;7.63;;;13.70;60.70;;;;;;4790895;30;20043;-78
2023/03/02 11:05:17;;;;;;;14.25;7.53;;;13.70;61.20;;;;;;4774852;30;20094;-78
2023/03/02 11:07:54;;;;;;;14.40;6.63;;;13.60;61.20;;;;;;4790166;29;20082;-81
2023/03/02 11:10:26;;;;;;;13.90;7.43;;;13.60;61.60;;;;;;4790982;29;20051;-78
2023/03/02 11:12:53;;;;;;;19.98;7.68;;;13.60;61.70;;;;;;4791291;30;20394;-78
2023/03/02 11:15:28;;;;;;;26.40;8.27;;;13.60;61.80;;;;;;4790550;30;20363;-79
2023/03/02 11:18:36;;;;;;;24.65;7.93;;;13.60;61.80;;;;;;4791157;30;20122;-77
2023/03/02 11:21:06;;;;;;;23.73;7.63;;;13.60;62.00;;;;;;4790512;29;20055;-80
2023/03/02 11:23:59;;;;;;;27.20;8.38;;;13.60;62.20;;;;;;4791071;30;20126;-77
2023/03/02 11:26:36;;;;;;;32.22;9.00;;;13.50;62.10;;;;;;4790496;30;20043;-78
2023/03/02 11:29:17;;;;;;;20.23;8.23;;;13.50;62.30;;;;;;4789856;29;20109;-77
2023/03/02 11:31:46;;;;;;;25.88;8.43;;;13.50;62.60;;;;;;4787622;30;20051;-73
2023/03/02 11:34:24;;;;;;;26.73;8.45;;;13.50;63.30;;;;;;4790665;30;20055;-75
2023/03/02 11:38:10;;;;;;;27.38;8.20;;;13.50;62.50;;;;;;5128938;27;20374;-75
2023/03/02 11:41:01;;;;;;;23.65;7.65;;;13.50;63.20;;;;;;5096846;28;20051;-83
2023/03/02 11:43:27;;;;;;;34.50;9.48;;;13.40;63.70;;;;;;5037426;28;20074;-74
2023/03/02 11:46:18;;;;;;;24.55;8.70;;;13.40;63.30;;;;;;5108261;28;20040;-82
2023/03/02 11:48:48;;;;;;;43.03;9.40;;;13.50;63.30;;;;;;5102535;28;20044;-75
2023/03/02 11:51:20;;;;;;;33.47;9.05;;;13.40;63.20;;;;;;5092490;28;20324;-79
2023/03/02 11:53:57;;;;;;;33.13;9.80;;;13.40;63.20;;;;;;5112385;28;20040;-72
2023/03/02 11:56:30;;;;;;;31.92;9.68;;;13.50;63.30;;;;;;5081562;28;20538;-78
2023/03/02 11:59:05;;;;;;;32.03;9.90;;;13.40;63.40;;;;;;5092212;28;20032;-74
2023/03/02 12:01:34;;;;;;;24.65;9.70;;;13.50;62.60;;;;;;5091929;28;20042;-73
2023/03/02 12:04:25;;;;;;;33.67;9.40;;;13.30;62.00;;;;;;5092540;28;20049;-73
2023/03/02 12:06:51;;;;;;;20.55;9.35;;;13.30;61.70;;;;;;5095902;28;20067;-72
2023/03/02 12:09:23;;;;;;;20.48;8.68;;;13.20;61.90;;;;;;5112249;28;20082;-72
2023/03/02 12:12:39;;;;;;;22.17;9.02;;;13.10;62.00;;;;;;5107995;28;20491;-73
2023/03/02 12:15:36;;;;;;;16.45;8.10;;;13.10;61.90;;;;;;5069987;28;20091;-72
2023/03/02 12:18:33;;;;;;;18.30;8.20;;;13.10;62.90;;;;;;5096032;28;20084;-72
2023/03/02 12:21:02;;;;;;;20.70;8.65;;;13.00;62.70;;;;;;5078481;28;20090;-72
2023/03/02 12:23:29;;;;;;;21.75;8.80;;;13.00;62.80;;;;;;5092603;28;20502;-73
2023/03/02 12:26:18;;;;;;;21.35;8.80;;;12.90;62.90;;;;;;5093394;28;20036;-72
2023/03/02 12:28:57;;;;;;;19.95;7.25;;;12.90;62.70;;;;;;5074399;28;20044;-74
2023/03/02 12:31:23;;;;;;;24.50;8.45;;;12.90;63.30;;;;;;5092655;28;20120;-75
2023/03/02 12:33:51;;;;;;;19.77;7.95;;;12.90;63.50;;;;;;5106517;28;20132;-72
2023/03/02 12:36:40;;;;;;;18.83;7.68;;;12.90;63.70;;;;;;5109697;28;20048;-75
2023/03/02 12:39:26;;;;;;;15.80;7.22;;;12.90;63.40;;;;;;5096261;28;20036;-76
2023/03/02 12:42:10;;;;;;;17.08;7.88;;;12.90;63.50;;;;;;5091255;28;20055;-73
2023/03/02 12:45:14;;;;;;;16.50;7.72;;;12.90;63.60;;;;;;5103702;28;20051;-76
2023/03/02 12:47:45;;;;;;;14.57;7.32;;;12.90;63.70;;;;;;5002906;28;20142;-74
2023/03/02 12:50:24;;;;;;;12.70;7.00;;;12.80;63.70;;;;;;5061488;28;20045;-72
2023/03/02 12:52:58;;;;;;;18.60;7.60;;;12.80;63.80;;;;;;5080325;28;20437;-70
2023/03/02 12:55:24;;;;;;;22.25;8.38;;;12.80;63.90;;;;;;5086141;28;20059;-75
2023/03/02 12:57:53;;;;;;;17.13;6.40;;;12.80;64.00;;;;;;5098050;28;20040;-76
2023/03/02 13:00:25;;;;;;;18.08;7.60;;;12.80;63.90;;;;;;5092588;28;20079;-79
2023/03/02 13:02:54;;;;;;;17.23;7.40;;;12.90;63.70;;;;;;5083808;28;20350;-75
2023/03/02 13:05:23;;;;;;;14.35;6.60;;;12.90;63.60;;;;;;5060207;28;20063;-74
2023/03/02 13:08:04;;;;;;;16.05;6.57;;;12.90;63.40;;;;;;5076991;28;20062;-78
2023/03/02 13:10:38;;;;;;;15.60;7.15;;;12.90;63.20;;;;;;5076888;28;20040;-76
2023/03/02 13:13:16;;;;;;;13.98;6.45;;;12.90;63.10;;;;;;5096465;28;20039;-78
2023/03/02 13:15:48;;;;;;;16.10;6.10;;;13.00;63.00;;;;;;5097537;28;20126;-77
2023/03/02 13:18:14;;;;;;;15.00;7.15;;;13.00;62.90;;;;;;5081105;28;20362;-76
2023/03/02 13:20:40;;;;;;;13.98;5.90;;;13.00;62.90;;;;;;5093782;28;20048;-75
2023/03/02 13:23:05;;;;;;;12.45;6.28;;;13.00;62.90;;;;;;5097217;28;20058;-76
2023/03/02 13:25:31;;;;;;;12.35;6.22;;;13.00;62.80;;;;;;5081047;28;20048;-74
2023/03/02 13:28:00;;;;;;;18.60;6.13;;;13.00;62.70;;;;;;5077673;28;20150;-75
2023/03/02 13:30:29;;;;;;;10.27;5.90;;;13.00;62.70;;;;;;5092255;28;20051;-79
2023/03/02 13:33:04;;;;;;;11.30;5.80;;;13.00;62.60;;;;;;5094475;28;20039;-80
2023/03/02 13:35:31;;;;;;;6.90;5.40;;;13.00;62.60;;;;;;5091875;28;20427;-76
2023/03/02 13:38:19;;;;;;;17.92;6.75;;;13.00;62.60;;;;;;5091949;28;20056;-76
2023/03/02 13:40:50;;;;;;;15.88;6.03;;;13.00;62.70;;;;;;5078909;28;20047;-76
2023/03/02 13:43:29;;;;;;;16.00;5.50;;;13.00;62.90;;;;;;5079653;28;20044;-77
2023/03/02 13:46:05;;;;;;;13.68;5.43;;;13.10;63.20;;;;;;5068527;28;20458;-78
2023/03/02 13:48:31;;;;;;;14.80;5.35;;;13.10;62.90;;;;;;5062798;28;20152;-78
2023/03/02 13:51:15;;;;;;;14.00;5.65;;;13.10;62.70;;;;;;5082085;28;20073;-77
2023/03/02 13:53:57;;;;;;;12.82;6.60;;;13.10;63.40;;;;;;5079793;28;20055;-76
2023/03/02 13:56:32;;;;;;;13.20;5.05;;;13.00;63.30;;;;;;5067090;28;20123;-72
2023/03/02 13:58:59;;;;;;;11.10;4.93;;;13.00;62.60;;;;;;5076301;28;20348;-76
2023/03/02 14:01:27;;;;;;;10.55;4.78;;;13.00;62.60;;;;;;5085799;28;20048;-74
2023/03/02 14:03:53;;;;;;;11.05;5.50;;;13.00;62.30;;;;;;5096602;28;20043;-75
2023/03/02 14:06:18;;;;;;;14.57;5.20;;;13.10;62.70;;;;;;5095291;28;20101;-75
2023/03/02 14:08:45;;;;;;;13.80;4.82;;;13.20;62.60;;;;;;5093825;28;20032;-78
2023/03/02 14:11:15;;;;;;;11.38;3.90;;;13.30;62.60;;;;;;5095889;28;20044;-79
2023/03/02 14:14:11;;;;;;;6.63;3.30;;;13.50;62.50;;;;;;5078680;28;20116;-73
2023/03/02 14:16:36;;;;;;;11.32;3.60;;;13.60;62.40;;;;;;5074574;28;20064;-76
2023/03/02 14:19:02;;;;;;;7.30;3.88;;;13.80;62.20;;;;;;5085286;28;20036;-74
2023/03/02 14:21:28;;;;;;;10.60;3.70;;;13.90;61.90;;;;;;5095566;28;20050;-78
2023/03/02 14:23:54;;;;;;;9.80;2.90;;;14.10;61.90;;;;;;5092119;28;20366;-74
2023/03/02 14:26:30;;;;;;;7.47;3.38;;;14.20;61.70;;;;;;5080111;28;20054;-76
2023/03/02 14:28:56;;;;;;;4.32;2.40;;;14.20;61.80;;;;;;5096181;28;20071;-78
2023/03/02 14:31:23;;;;;;;6.20;2.55;;;14.30;61.70;;;;;;5093990;28;20032;-76
2023/03/02 14:33:50;;;;;;;4.18;2.05;;;14.40;61.60;;;;;;5044344;28;20064;-75
2023/03/02 14:36:25;;;;;;;7.70;2.92;;;14.50;61.50;;;;;;5075914;28;20110;-76
2023/03/02 14:38:50;;;;;;;5.75;2.40;;;14.50;61.40;;;;;;5075247;28;20356;-79
2023/03/02 14:41:21;;;;;;;8.57;2.20;;;14.50;61.50;;;;;;5084617;28;20039;-77
2023/03/02 14:43:48;;;;;;;7.15;2.08;;;14.60;61.60;;;;;;5077982;28;20055;-79
2023/03/02 14:46:13;;;;;;;6.80;1.95;;;14.50;61.90;;;;;;5075114;28;20068;-81
2023/03/02 14:48:39;;;;;;;7.80;2.28;;;14.60;62.00;;;;;;5064415;28;20074;-80
2023/03/02 14:51:24;;;;;;;6.10;2.53;;;14.70;62.10;;;;;;5066335;28;20123;-81
2023/03/02 14:53:59;;;;;;;6.53;2.22;;;14.80;62.40;;;;;;5061131;28;20055;-83
2023/03/02 14:56:25;;;;;;;11.63;2.28;;;15.00;62.50;;;;;;5043791;28;20036;-81
2023/03/02 14:58:52;;;;;;;23.45;3.60;;;15.00;62.10;;;;;;5075560;28;20109;-81
2023/03/02 15:01:19;;;;;;;10.70;3.38;;;15.10;61.60;;;;;;5078594;28;20029;-80
2023/03/02 15:03:46;;;;;;;12.75;2.67;;;15.00;63.20;;;;;;5057781;28;20040;-81
2023/03/02 15:06:28;;;;;;;14.77;3.65;;;14.80;62.80;;;;;;5045581;28;20113;-77
2023/03/02 15:08:59;;;;;;;14.00;4.22;;;14.90;63.50;;;;;;5077195;28;20054;-80
2023/03/02 15:11:26;;;;;;;15.85;5.68;;;15.10;63.30;;;;;;5095393;28;20055;-75
2023/03/02 15:13:52;;;;;;;17.08;5.82;;;15.20;63.50;;;;;;5090482;28;20044;-78
2023/03/02 15:16:20;;;;;;;15.80;6.70;;;15.30;63.80;;;;;;5095237;28;20086;-83
2023/03/02 15:18:51;;;;;;;17.73;6.32;;;15.30;64.00;;;;;;5094322;28;20116;-74
2023/03/02 15:21:22;;;;;;;13.93;6.05;;;15.40;64.20;;;;;;5095061;28;20045;-78
2023/03/02 15:23:48;;;;;;;12.13;5.70;;;15.50;64.50;;;;;;5095532;28;20036;-76
2023/03/02 15:26:14;;;;;;;17.85;6.03;;;15.50;64.60;;;;;;5095568;28;20047;-75
2023/03/02 15:28:40;;;;;;;15.00;5.80;;;15.50;64.80;;;;;;5094776;28;20502;-75
2023/03/02 15:31:15;;;;;;;16.42;6.57;;;15.50;65.00;;;;;;5079270;28;20094;-77
2023/03/02 15:33:45;;;;;;;20.38;8.73;;;15.50;65.90;;;;;;5091522;28;20129;-80
2023/03/02 15:36:11;;;;;;;18.27;7.90;;;15.50;67.20;;;;;;5071313;28;20044;-77
2023/03/02 15:38:37;;;;;;;17.52;6.07;;;15.50;67.00;;;;;;5094535;28;20036;-77
2023/03/02 15:41:22;;;;;;;11.00;5.10;;;15.50;66.60;;;;;;5090342;28;20473;-76
2023/03/02 15:43:50;;;;;;;13.18;5.55;;;15.50;65.50;;;;;;5094632;28;20478;-78
2023/03/02 15:46:15;;;;;;;15.15;5.03;;;15.50;64.30;;;;;;5077320;28;20119;-75
2023/03/02 15:48:41;;;;;;;13.82;5.32;;;15.40;64.60;;;;;;5093406;28;20124;-78
2023/03/02 15:51:07;;;;;;;17.85;5.07;;;15.40;65.10;;;;;;5076259;28;20078;-77
2023/03/02 15:53:35;;;;;;;18.42;4.72;;;15.40;65.90;;;;;;5089226;28;20119;-77
2023/03/02 15:56:06;;;;;;;18.55;3.55;;;15.40;66.60;;;;;;5057231;28;20113;-77
2023/03/02 15:58:33;;;;;;;15.43;4.28;;;15.50;67.10;;;;;;5074969;28;20167;-79
2023/03/02 16:00:59;;;;;;;17.77;4.72;;;15.50;66.90;;;;;;5082099;28;20462;-76
2023/03/02 16:03:25;;;;;;;14.48;3.95;;;15.50;67.10;;;;;;5095039;28;20040;-78
2023/03/02 16:05:51;;;;;;;15.73;4.53;;;15.50;67.10;;;;;;5092768;28;20052;-77
2023/03/02 16:08:17;;;;;;;20.13;4.43;;;15.50;67.20;;;;;;5048864;28;20042;-78
2023/03/02 16:10:43;;;;;;;18.13;3.85;;;15.50;67.10;;;;;;5090930;28;20044;-77
2023/03/02 16:13:12;;;;;;;11.75;3.45;;;15.60;67.00;;;;;;5093731;28;20043;-77
2023/03/02 16:15:41;;;;;;;16.80;4.10;;;15.60;66.90;;;;;;5094955;28;20044;-78
2023/03/02 16:18:08;;;;;;;10.57;3.22;;;15.60;67.50;;;;;;5077488;28;20127;-77
2023/03/02 16:20:36;;;;;;;15.07;3.17;;;15.60;66.90;;;;;;5093818;28;20119;-78
2023/03/02 16:23:05;;;;;;;13.02;3.53;;;15.60;66.90;;;;;;5096033;28;20067;-77
2023/03/02 16:25:42;;;;;;;19.88;4.03;;;15.60;66.70;;;;;;5098687;28;20108;-78
2023/03/02 16:28:12;;;;;;;18.58;3.28;;;15.60;66.90;;;;;;5098537;28;20509;-76
2023/03/02 16:30:38;;;;;;;20.70;3.90;;;15.60;66.80;;;;;;5053584;28;20378;-76
2023/03/02 16:33:08;;;;;;;20.15;3.40;;;15.60;66.80;;;;;;5079246;28;20480;-76
2023/03/02 16:35:36;;;;;;;20.23;4.28;;;15.60;66.80;;;;;;5065393;28;20054;-75
2023/03/02 16:38:02;;;;;;;19.52;3.20;;;15.60;66.80;;;;;;5080784;28;20056;-77
2023/03/02 16:40:28;;;;;;;24.90;3.72;;;15.60;66.60;;;;;;5097713;28;20040;-74
2023/03/02 16:42:54;;;;;;;23.52;3.85;;;15.60;66.50;;;;;;5097412;28;20479;-78
2023/03/02 16:45:21;;;;;;;28.90;5.00;;;15.60;66.40;;;;;;5097558;28;20197;-73
2023/03/02 16:47:47;;;;;;;18.52;4.00;;;15.60;66.20;;;;;;5098923;28;20044;-76
2023/03/02 16:50:15;;;;;;;34.10;4.70;;;15.60;66.10;;;;;;5097234;28;20059;-77
2023/03/02 16:52:40;;;;;;;23.13;3.47;;;15.60;66.80;;;;;;5098080;28;20051;-80
2023/03/02 16:55:16;;;;;;;16.52;3.40;;;15.60;66.30;;;;;;5044196;28;20044;-77
2023/03/02 16:57:42;;;;;;;20.33;3.30;;;15.40;63.20;;;;;;5077618;28;20045;-77
2023/03/02 17:00:11;;;;;;;24.00;4.10;;;15.50;65.50;;;;;;5084201;28;20067;-78
2023/03/02 17:02:37;;;;;;;16.38;3.17;;;15.50;65.50;;;;;;5094188;28;20109;-77
2023/03/02 17:05:03;;;;;;;20.20;3.40;;;15.60;65.30;;;;;;5095306;28;20075;-78
2023/03/02 17:07:29;;;;;;;18.35;3.55;;;15.60;65.00;;;;;;5097721;28;20515;-77
2023/03/02 17:09:54;;;;;;;14.85;3.05;;;15.60;64.80;;;;;;5079203;28;20127;-76
2023/03/02 17:12:20;;;;;;;16.63;3.25;;;15.60;64.60;;;;;;5097650;28;20098;-78
2023/03/02 17:14:46;;;;;;;13.18;3.42;;;15.70;64.30;;;;;;5098076;28;20125;-77
2023/03/02 17:17:12;;;;;;;20.05;3.90;;;15.70;64.20;;;;;;5095827;28;20443;-78
2023/03/02 17:19:37;;;;;;;18.05;3.53;;;15.70;63.90;;;;;;5097757;28;20523;-78
2023/03/02 17:22:03;;;;;;;9.35;3.17;;;15.70;63.80;;;;;;5097352;28;20047;-80
2023/03/02 17:24:29;;;;;;;21.17;4.68;;;15.70;63.60;;;;;;5079725;28;20044;-82
2023/03/02 17:26:55;;;;;;;15.10;4.72;;;15.70;63.00;;;;;;5052912;28;20044;-82
2023/03/02 17:29:21;;;;;;;14.10;5.30;;;15.70;61.80;;;;;;5059038;28;20048;-78
2023/03/02 17:31:47;;;;;;;9.98;4.80;;;15.70;60.60;;;;;;5061781;28;20109;-78
2023/03/02 17:34:13;;;;;;;9.93;5.45;;;15.60;59.30;;;;;;5059088;28;20036;-79
2023/03/02 17:36:39;;;;;;;11.27;5.00;;;15.60;58.40;;;;;;5076281;28;20113;-77
2023/03/02 17:39:07;;;;;;;10.27;4.45;;;15.50;58.30;;;;;;5077273;28;20052;-78
2023/03/02 17:41:34;;;;;;;7.72;3.90;;;15.40;59.10;;;;;;5086005;28;20116;-77
2023/03/02 17:44:01;;;;;;;9.75;4.88;;;15.40;59.00;;;;;;5075418;28;20040;-76
2023/03/02 17:46:37;;;;;;;8.40;4.60;;;15.40;59.20;;;;;;5091598;28;20056;-79
2023/03/02 17:49:02;;;;;;;12.73;4.28;;;15.30;59.40;;;;;;5089547;28;20432;-78
2023/03/02 17:51:28;;;;;;;9.77;4.07;;;15.20;59.60;;;;;;5077009;28;20123;-79
2023/03/02 17:53:55;;;;;;;7.97;3.35;;;15.20;60.10;;;;;;5076761;28;20051;-77
2023/03/02 17:56:24;;;;;;;8.02;3.47;;;15.10;60.10;;;;;;5059161;28;20148;-78
2023/03/02 17:58:55;;;;;;;16.55;4.85;;;15.10;60.20;;;;;;5082415;28;20055;-77